DLH27A EDDN-LFLL
Flight info
| Callsign | DLH27A |
|---|---|
| Flight time | 0h 57m |
| Altitude | 30000 |
| Route | BOLSI1C/10 BOLSI Y166 DKB N869 TEDGO/N0413F310 N869 MILPA |
| Aircraft | A339/H-SADE1E2E3GHIJ3J5M1P2RWXY/LB2D1 |
Departure
| Time | 2026-04-29 22:58 |
|---|---|
| Airport | Nuremberg Airport (EDDN) |
Arrival
| Time | 2026-04-29 23:55 |
|---|---|
| Airport | Lyon Saint-Exupéry Airport (LFLL) |
| Time | Latitude | Longitude | Altitude | Speed | Heading |
|---|---|---|---|---|---|
| 2026-04-29 22:39 | 49.49547 | 11.07518 | 1039 ft | 0 kts | 188° |
| 2026-04-29 22:50 | 49.49550 | 11.07519 | 1039 ft | 2 kts | 188° |
| 2026-04-29 22:50 | 49.49561 | 11.07521 | 1040 ft | 2 kts | 194° |
| 2026-04-29 22:51 | 49.49572 | 11.07526 | 1041 ft | 2 kts | 174° |
| 2026-04-29 22:51 | 49.49587 | 11.07524 | 1042 ft | 2 kts | 151° |
| 2026-04-29 22:51 | 49.49609 | 11.07492 | 1043 ft | 2 kts | 96° |
| 2026-04-29 22:52 | 49.49610 | 11.07487 | 1044 ft | 0 kts | 91° |
| 2026-04-29 22:54 | 49.49610 | 11.07495 | 1042 ft | 2 kts | 91° |
| 2026-04-29 22:54 | 49.49608 | 11.07531 | 1042 ft | 5 kts | 96° |
| 2026-04-29 22:54 | 49.49602 | 11.07608 | 1043 ft | 10 kts | 97° |
| 2026-04-29 22:55 | 49.49603 | 11.07740 | 1045 ft | 10 kts | 68° |
| 2026-04-29 22:55 | 49.49663 | 11.07760 | 1048 ft | 9 kts | 343° |
| 2026-04-29 22:55 | 49.49688 | 11.07671 | 1049 ft | 12 kts | 280° |
| 2026-04-29 22:55 | 49.49709 | 11.07452 | 1046 ft | 31 kts | 281° |
| 2026-04-29 22:56 | 49.49753 | 11.07027 | 1040 ft | 46 kts | 279° |
| 2026-04-29 22:56 | 49.49803 | 11.06511 | 1034 ft | 49 kts | 278° |
| 2026-04-29 22:56 | 49.49853 | 11.06055 | 1038 ft | 20 kts | 285° |
| 2026-04-29 22:56 | 49.49951 | 11.05946 | 1040 ft | 19 kts | 339° |
| 2026-04-29 22:57 | 49.50041 | 11.06006 | 1039 ft | 12 kts | 66° |
| 2026-04-29 22:57 | 49.50034 | 11.06142 | 1040 ft | 19 kts | 99° |
| 2026-04-29 22:57 | 49.49971 | 11.06784 | 1039 ft | 117 kts | 99° |
| 2026-04-29 22:57 | 49.49815 | 11.08417 | 1377 ft | 177 kts | 97° |
| 2026-04-29 22:58 | 49.49612 | 11.10354 | 2651 ft | 185 kts | 97° |
| 2026-04-29 22:58 | 49.49404 | 11.12288 | 3740 ft | 190 kts | 98° |
| 2026-04-29 22:58 | 49.49189 | 11.14402 | 4446 ft | 212 kts | 98° |
| 2026-04-29 22:58 | 49.48948 | 11.16752 | 5108 ft | 232 kts | 99° |
| 2026-04-29 22:59 | 49.48579 | 11.19249 | 5764 ft | 246 kts | 107° |
| 2026-04-29 22:59 | 49.47918 | 11.21720 | 6455 ft | 256 kts | 117° |
| 2026-04-29 22:59 | 49.46819 | 11.23942 | 7186 ft | 269 kts | 134° |
| 2026-04-29 22:59 | 49.45265 | 11.25620 | 7929 ft | 279 kts | 153° |
| 2026-04-29 23:00 | 49.43361 | 11.26288 | 8737 ft | 286 kts | 179° |
| 2026-04-29 23:00 | 49.41391 | 11.25764 | 9649 ft | 290 kts | 194° |
| 2026-04-29 23:00 | 49.39416 | 11.24909 | 10233 ft | 301 kts | 194° |
| 2026-04-29 23:00 | 49.37357 | 11.24228 | 10374 ft | 302 kts | 189° |
| 2026-04-29 23:01 | 49.35268 | 11.23786 | 10723 ft | 304 kts | 186° |
| 2026-04-29 23:01 | 49.33182 | 11.23244 | 11611 ft | 304 kts | 199° |
| 2026-04-29 23:01 | 49.31356 | 11.21658 | 12594 ft | 304 kts | 222° |
| 2026-04-29 23:01 | 49.30064 | 11.19125 | 13534 ft | 303 kts | 245° |
| 2026-04-29 23:02 | 49.29415 | 11.16093 | 14300 ft | 310 kts | 259° |
| 2026-04-29 23:02 | 49.29002 | 11.12729 | 14556 ft | 333 kts | 262° |
| 2026-04-29 23:02 | 49.28591 | 11.09122 | 14846 ft | 352 kts | 261° |
| 2026-04-29 23:02 | 49.28096 | 11.05434 | 15570 ft | 356 kts | 259° |
| 2026-04-29 23:03 | 49.27534 | 11.01729 | 16361 ft | 358 kts | 258° |
| 2026-04-29 23:03 | 49.26932 | 10.98019 | 17125 ft | 361 kts | 257° |
| 2026-04-29 23:03 | 49.26305 | 10.94271 | 17861 ft | 364 kts | 257° |
| 2026-04-29 23:03 | 49.25672 | 10.90513 | 18621 ft | 367 kts | 257° |
| 2026-04-29 23:04 | 49.25027 | 10.86695 | 19298 ft | 370 kts | 257° |
| 2026-04-29 23:04 | 49.24384 | 10.82884 | 19993 ft | 372 kts | 257° |
| 2026-04-29 23:04 | 49.23734 | 10.79030 | 20660 ft | 375 kts | 257° |
| 2026-04-29 23:04 | 49.23081 | 10.75157 | 21361 ft | 377 kts | 257° |
| 2026-04-29 23:05 | 49.22422 | 10.71264 | 22046 ft | 380 kts | 257° |
| 2026-04-29 23:05 | 49.21757 | 10.67343 | 22710 ft | 383 kts | 257° |
| 2026-04-29 23:05 | 49.21083 | 10.63375 | 23394 ft | 387 kts | 257° |
| 2026-04-29 23:05 | 49.20411 | 10.59432 | 24066 ft | 389 kts | 257° |
| 2026-04-29 23:06 | 49.19726 | 10.55424 | 24743 ft | 389 kts | 257° |
| 2026-04-29 23:06 | 49.19041 | 10.51423 | 25425 ft | 389 kts | 257° |
| 2026-04-29 23:06 | 49.18354 | 10.47415 | 26032 ft | 391 kts | 257° |
| 2026-04-29 23:06 | 49.17663 | 10.43393 | 26698 ft | 391 kts | 257° |
| 2026-04-29 23:07 | 49.16970 | 10.39369 | 27333 ft | 393 kts | 257° |
| 2026-04-29 23:07 | 49.16269 | 10.35311 | 27930 ft | 395 kts | 257° |
| 2026-04-29 23:07 | 49.15566 | 10.31241 | 28490 ft | 397 kts | 257° |
| 2026-04-29 23:07 | 49.14749 | 10.27202 | 29066 ft | 400 kts | 252° |
| 2026-04-29 23:08 | 49.13589 | 10.23319 | 29643 ft | 405 kts | 245° |
| 2026-04-29 23:08 | 49.12084 | 10.19640 | 30134 ft | 411 kts | 239° |
| 2026-04-29 23:08 | 49.10912 | 10.17340 | 30282 ft | 416 kts | 235° |
| 2026-04-29 23:08 | 49.09070 | 10.13911 | 30338 ft | 423 kts | 235° |
| 2026-04-29 23:09 | 49.05304 | 10.06833 | 30332 ft | 429 kts | 235° |
| 2026-04-29 23:09 | 49.00917 | 9.98565 | 30337 ft | 432 kts | 235° |
| 2026-04-29 23:10 | 48.97769 | 9.92643 | 30334 ft | 432 kts | 235° |
| 2026-04-29 23:10 | 48.93968 | 9.85504 | 30332 ft | 434 kts | 234° |
| 2026-04-29 23:11 | 48.90159 | 9.78372 | 30326 ft | 435 kts | 234° |
| 2026-04-29 23:11 | 48.86326 | 9.71211 | 30317 ft | 436 kts | 234° |
| 2026-04-29 23:12 | 48.82480 | 9.64050 | 30301 ft | 437 kts | 234° |
| 2026-04-29 23:12 | 48.78617 | 9.56874 | 30290 ft | 439 kts | 234° |
| 2026-04-29 23:13 | 48.74749 | 9.49708 | 30288 ft | 439 kts | 234° |
| 2026-04-29 23:13 | 48.70863 | 9.42526 | 30290 ft | 441 kts | 234° |
| 2026-04-29 23:14 | 48.66988 | 9.35384 | 30289 ft | 441 kts | 234° |
| 2026-04-29 23:14 | 48.63068 | 9.28181 | 30294 ft | 443 kts | 234° |
| 2026-04-29 23:15 | 48.59385 | 9.20752 | 30291 ft | 441 kts | 238° |
| 2026-04-29 23:15 | 48.55822 | 9.13152 | 30288 ft | 443 kts | 238° |
| 2026-04-29 23:16 | 48.52246 | 9.05576 | 30282 ft | 443 kts | 238° |
| 2026-04-29 23:16 | 48.48648 | 8.97984 | 30283 ft | 445 kts | 237° |
| 2026-04-29 23:17 | 48.45046 | 8.90407 | 30274 ft | 445 kts | 237° |
| 2026-04-29 23:17 | 48.41428 | 8.82818 | 30272 ft | 446 kts | 237° |
| 2026-04-29 23:18 | 48.37833 | 8.75299 | 30268 ft | 445 kts | 237° |
| 2026-04-29 23:18 | 48.34200 | 8.67719 | 30270 ft | 446 kts | 237° |
| 2026-04-29 23:19 | 48.30561 | 8.60150 | 30264 ft | 446 kts | 237° |
| 2026-04-29 23:19 | 48.26909 | 8.52572 | 30265 ft | 447 kts | 237° |
| 2026-04-29 23:20 | 48.23262 | 8.45030 | 30254 ft | 446 kts | 237° |
| 2026-04-29 23:20 | 48.19598 | 8.37490 | 30261 ft | 448 kts | 235° |
| 2026-04-29 23:21 | 48.15155 | 8.30920 | 30248 ft | 453 kts | 219° |
| 2026-04-29 23:21 | 48.09708 | 8.26161 | 30251 ft | 457 kts | 211° |
| 2026-04-29 23:22 | 48.04108 | 8.21663 | 30245 ft | 456 kts | 211° |
| 2026-04-29 23:22 | 47.98513 | 8.17137 | 30240 ft | 457 kts | 211° |
| 2026-04-29 23:23 | 47.92915 | 8.12619 | 30230 ft | 457 kts | 211° |
| 2026-04-29 23:23 | 47.87313 | 8.08108 | 30228 ft | 457 kts | 211° |
| 2026-04-29 23:24 | 47.81704 | 8.03606 | 30220 ft | 458 kts | 211° |
| 2026-04-29 23:24 | 47.76087 | 7.99108 | 30209 ft | 458 kts | 211° |
| 2026-04-29 23:25 | 47.70466 | 7.94617 | 30199 ft | 458 kts | 211° |
| 2026-04-29 23:25 | 47.64839 | 7.90131 | 30194 ft | 459 kts | 211° |
| 2026-04-29 23:26 | 47.59212 | 7.85657 | 30189 ft | 459 kts | 211° |
| 2026-04-29 23:26 | 47.53604 | 7.81208 | 30187 ft | 459 kts | 211° |
| 2026-04-29 23:27 | 47.47965 | 7.76747 | 30181 ft | 459 kts | 211° |
| 2026-04-29 23:27 | 47.42582 | 7.72497 | 30182 ft | 459 kts | 211° |
| 2026-04-29 23:28 | 47.36943 | 7.68057 | 30180 ft | 459 kts | 211° |
| 2026-04-29 23:28 | 47.31480 | 7.63239 | 30180 ft | 455 kts | 220° |
| 2026-04-29 23:29 | 47.27031 | 7.56736 | 30177 ft | 448 kts | 234° |
| 2026-04-29 23:29 | 47.23211 | 7.49514 | 30177 ft | 449 kts | 234° |
| 2026-04-29 23:30 | 47.19349 | 7.42317 | 30176 ft | 449 kts | 234° |
| 2026-04-29 23:30 | 47.15459 | 7.35122 | 30191 ft | 449 kts | 234° |
| 2026-04-29 23:31 | 47.11568 | 7.27943 | 30187 ft | 448 kts | 234° |
| 2026-04-29 23:31 | 47.07675 | 7.20776 | 30172 ft | 448 kts | 234° |
| 2026-04-29 23:32 | 47.03786 | 7.13635 | 30160 ft | 447 kts | 234° |
| 2026-04-29 23:32 | 46.99924 | 7.06566 | 30154 ft | 447 kts | 234° |
| 2026-04-29 23:33 | 46.96040 | 6.99475 | 30150 ft | 446 kts | 234° |
| 2026-04-29 23:33 | 46.92156 | 6.92400 | 30158 ft | 445 kts | 234° |
| 2026-04-29 23:34 | 46.88277 | 6.85356 | 30158 ft | 444 kts | 234° |
| 2026-04-29 23:34 | 46.84396 | 6.78326 | 30157 ft | 443 kts | 234° |
| 2026-04-29 23:35 | 46.80515 | 6.71316 | 30148 ft | 443 kts | 234° |
| 2026-04-29 23:35 | 46.76650 | 6.64360 | 30128 ft | 448 kts | 236° |
| 2026-04-29 23:36 | 46.72707 | 6.57274 | 30138 ft | 449 kts | 236° |
| 2026-04-29 23:36 | 46.68610 | 6.50361 | 30120 ft | 452 kts | 233° |
| 2026-04-29 23:37 | 46.64404 | 6.43550 | 30129 ft | 451 kts | 233° |
| 2026-04-29 23:37 | 46.60250 | 6.36767 | 30121 ft | 452 kts | 233° |
| 2026-04-29 23:38 | 46.56081 | 6.29941 | 29965 ft | 449 kts | 233° |
| 2026-04-29 23:38 | 46.54003 | 6.26542 | 29084 ft | 449 kts | 233° |
| 2026-04-29 23:38 | 46.51919 | 6.23128 | 27606 ft | 456 kts | 232° |
| 2026-04-29 23:39 | 46.49797 | 6.19655 | 26381 ft | 459 kts | 232° |
| 2026-04-29 23:39 | 46.47681 | 6.16210 | 25348 ft | 454 kts | 231° |
| 2026-04-29 23:39 | 46.45595 | 6.12823 | 24502 ft | 445 kts | 231° |
| 2026-04-29 23:39 | 46.43575 | 6.09544 | 23705 ft | 436 kts | 231° |
| 2026-04-29 23:40 | 46.41544 | 6.06248 | 22761 ft | 429 kts | 231° |
| 2026-04-29 23:40 | 46.39582 | 6.03066 | 22039 ft | 417 kts | 231° |
| 2026-04-29 23:40 | 46.37674 | 5.99971 | 21254 ft | 407 kts | 230° |
| 2026-04-29 23:40 | 46.35811 | 5.96953 | 20477 ft | 398 kts | 230° |
| 2026-04-29 23:41 | 46.33998 | 5.94022 | 19709 ft | 390 kts | 230° |
| 2026-04-29 23:41 | 46.32209 | 5.91113 | 18942 ft | 383 kts | 231° |
| 2026-04-29 23:41 | 46.30662 | 5.88029 | 18147 ft | 376 kts | 240° |
| 2026-04-29 23:41 | 46.29489 | 5.84710 | 17601 ft | 369 kts | 248° |
| 2026-04-29 23:42 | 46.28594 | 5.81105 | 17093 ft | 386 kts | 253° |
| 2026-04-29 23:42 | 46.27748 | 5.77438 | 16554 ft | 382 kts | 252° |
| 2026-04-29 23:42 | 46.26897 | 5.73813 | 16033 ft | 378 kts | 252° |
| 2026-04-29 23:42 | 46.26047 | 5.70223 | 15500 ft | 376 kts | 252° |
| 2026-04-29 23:43 | 46.25195 | 5.66656 | 14980 ft | 374 kts | 252° |
| 2026-04-29 23:43 | 46.24348 | 5.63116 | 14453 ft | 371 kts | 251° |
| 2026-04-29 23:43 | 46.23518 | 5.59651 | 13941 ft | 368 kts | 251° |
| 2026-04-29 23:43 | 46.22681 | 5.56165 | 13399 ft | 366 kts | 251° |
| 2026-04-29 23:44 | 46.21845 | 5.52700 | 12890 ft | 364 kts | 251° |
| 2026-04-29 23:44 | 46.21015 | 5.49269 | 12376 ft | 361 kts | 251° |
| 2026-04-29 23:44 | 46.20190 | 5.45861 | 11885 ft | 358 kts | 251° |
| 2026-04-29 23:44 | 46.19368 | 5.42471 | 11412 ft | 355 kts | 251° |
| 2026-04-29 23:45 | 46.18380 | 5.39325 | 11209 ft | 336 kts | 237° |
| 2026-04-29 23:45 | 46.16815 | 5.36988 | 11019 ft | 313 kts | 215° |
| 2026-04-29 23:45 | 46.14941 | 5.35589 | 10569 ft | 298 kts | 204° |
| 2026-04-29 23:45 | 46.13052 | 5.34400 | 9864 ft | 294 kts | 203° |
| 2026-04-29 23:46 | 46.11280 | 5.33075 | 9122 ft | 290 kts | 215° |
| 2026-04-29 23:46 | 46.09892 | 5.31069 | 8772 ft | 283 kts | 233° |
| 2026-04-29 23:46 | 46.08860 | 5.28631 | 8402 ft | 285 kts | 239° |
| 2026-04-29 23:46 | 46.07877 | 5.26191 | 8001 ft | 279 kts | 239° |
| 2026-04-29 23:47 | 46.06895 | 5.23777 | 7622 ft | 279 kts | 239° |
| 2026-04-29 23:47 | 46.05909 | 5.21387 | 7224 ft | 276 kts | 238° |
| 2026-04-29 23:47 | 46.04920 | 5.19013 | 6856 ft | 275 kts | 238° |
| 2026-04-29 23:47 | 46.03935 | 5.16661 | 6442 ft | 273 kts | 238° |
| 2026-04-29 23:48 | 46.02955 | 5.14325 | 6061 ft | 272 kts | 238° |
| 2026-04-29 23:48 | 46.01988 | 5.12020 | 5828 ft | 262 kts | 238° |
| 2026-04-29 23:48 | 46.01089 | 5.09873 | 5622 ft | 245 kts | 238° |
| 2026-04-29 23:48 | 46.00206 | 5.07824 | 5106 ft | 239 kts | 233° |
| 2026-04-29 23:49 | 45.98980 | 5.06302 | 4318 ft | 231 kts | 206° |
| 2026-04-29 23:49 | 45.97451 | 5.05848 | 3752 ft | 229 kts | 177° |
| 2026-04-29 23:49 | 45.95868 | 5.06137 | 3550 ft | 228 kts | 170° |
| 2026-04-29 23:49 | 45.94303 | 5.06537 | 3368 ft | 228 kts | 171° |
| 2026-04-29 23:50 | 45.92734 | 5.06828 | 3050 ft | 226 kts | 174° |
| 2026-04-29 23:50 | 45.91162 | 5.07010 | 2738 ft | 225 kts | 174° |
| 2026-04-29 23:50 | 45.88205 | 5.07377 | 2412 ft | 194 kts | 174° |
| 2026-04-29 23:51 | 45.86942 | 5.07531 | 2285 ft | 171 kts | 174° |
| 2026-04-29 23:51 | 45.85830 | 5.07667 | 2163 ft | 149 kts | 173° |
| 2026-04-29 23:51 | 45.84863 | 5.07783 | 2004 ft | 132 kts | 173° |
| 2026-04-29 23:51 | 45.83956 | 5.07898 | 1763 ft | 133 kts | 173° |
| 2026-04-29 23:52 | 45.83060 | 5.08008 | 1738 ft | 124 kts | 173° |
| 2026-04-29 23:52 | 45.82151 | 5.08121 | 1747 ft | 134 kts | 173° |
| 2026-04-29 23:52 | 45.81270 | 5.08228 | 1775 ft | 133 kts | 173° |
| 2026-04-29 23:52 | 45.80361 | 5.08339 | 1702 ft | 130 kts | 173° |
| 2026-04-29 23:53 | 45.79455 | 5.08441 | 1646 ft | 127 kts | 174° |
| 2026-04-29 23:53 | 45.78553 | 5.08543 | 1511 ft | 128 kts | 174° |
| 2026-04-29 23:53 | 45.77675 | 5.08693 | 1369 ft | 130 kts | 172° |
| 2026-04-29 23:53 | 45.76823 | 5.08807 | 1212 ft | 115 kts | 176° |
| 2026-04-29 23:54 | 45.76033 | 5.08886 | 1052 ft | 122 kts | 175° |
| 2026-04-29 23:54 | 45.75132 | 5.08993 | 1024 ft | 136 kts | 175° |
| 2026-04-29 23:54 | 45.74214 | 5.09103 | 895 ft | 126 kts | 175° |
| 2026-04-29 23:54 | 45.73396 | 5.09199 | 801 ft | 110 kts | 175° |
| 2026-04-29 23:55 | 45.72818 | 5.09272 | 807 ft | 56 kts | 175° |
| 2026-04-29 23:55 | 45.72512 | 5.09311 | 812 ft | 40 kts | 174° |
| 2026-04-29 23:55 | 45.72243 | 5.09332 | 813 ft | 37 kts | 180° |
| 2026-04-29 23:55 | 45.72010 | 5.09229 | 816 ft | 27 kts | 212° |
| 2026-04-29 23:56 | 45.71978 | 5.09117 | 815 ft | 18 kts | 274° |
| 2026-04-29 23:56 | 45.71966 | 5.08924 | 817 ft | 21 kts | 264° |
| 2026-04-29 23:56 | 45.71947 | 5.08699 | 815 ft | 25 kts | 262° |
| 2026-04-29 23:56 | 45.71955 | 5.08472 | 812 ft | 14 kts | 303° |
| 2026-04-29 23:57 | 45.72042 | 5.08446 | 810 ft | 15 kts | 358° |
| 2026-04-29 23:57 | 45.72172 | 5.08430 | 812 ft | 23 kts | 355° |
| 2026-04-29 23:57 | 45.72255 | 5.08379 | 811 ft | 6 kts | 291° |
| 2026-04-29 23:57 | 45.72265 | 5.08297 | 810 ft | 10 kts | 285° |
| 2026-04-29 23:58 | 45.72265 | 5.08202 | 810 ft | 3 kts | 276° |
| 2026-04-29 23:58 | 45.72268 | 5.08192 | 810 ft | 0 kts | 283° |
| 2026-04-29 23:59 | 45.80993 | 5.08262 | 1755 ft | 134 kts | 173° |
| 2026-04-29 23:59 | 45.73918 | 5.09136 | 856 ft | 119 kts | 175° |
| 2026-04-29 23:59 | 45.73148 | 5.09233 | 801 ft | 93 kts | 174° |
| 2026-04-30 00:00 | 45.73579 | 5.09177 | 816 ft | 113 kts | 175° |
| 2026-04-30 00:00 | 45.73806 | 5.09149 | 835 ft | 117 kts | 175° |
| 2026-04-30 00:00 | 45.73065 | 5.09244 | 801 ft | 85 kts | 175° |
| 2026-04-30 00:01 | 45.73284 | 5.09214 | 802 ft | 78 kts | 174° |
| 2026-04-30 00:01 | 45.73357 | 5.09204 | 801 ft | 108 kts | 174° |